Time;durP1;ratioP1;P1;durP2;ratioP2;P2;SDS_P1;SDS_P2;PMS_P1;PMS_P2;Temp;Humidity;BMP_temperature;BMP_pressure;BME280_temperature;BME280_humidity;BME280_pressure;Samples;Min_cycle;Max_cycle;Signal;HPM_P1;HPM_P2
2021/06/27 00:00:21;;;;;;;;;;;21.00;93.00;;;;;;2098777;28;1697;-58
2021/06/27 00:01:40;;;;;;;;;;;21.00;93.00;;;;;;2098905;28;1906;-58
2021/06/27 00:02:59;;;;;;;;;;;21.00;93.10;;;;;;2098435;28;1387;-59
2021/06/27 00:04:19;;;;;;;;;;;21.00;93.40;;;;;;2094500;28;1451;-58
2021/06/27 00:05:38;;;;;;;;;;;21.00;93.40;;;;;;2098847;28;1569;-59
2021/06/27 00:06:57;;;;;;;;;;;21.00;93.20;;;;;;2106690;28;727;-58
2021/06/27 00:08:17;;;;;;;;;;;21.00;93.20;;;;;;2102232;28;709;-58
2021/06/27 00:09:36;;;;;;;;;;;20.90;93.10;;;;;;2099195;28;719;-58
2021/06/27 00:10:58;;;;;;;;;;;21.00;93.20;;;;;;2089977;28;1713;-58
2021/06/27 00:12:17;;;;;;;;;;;20.90;93.20;;;;;;2096084;28;1437;-58
2021/06/27 00:13:37;;;;;;;;;;;21.00;93.30;;;;;;2098519;28;741;-58
2021/06/27 00:14:56;;;;;;;;;;;20.90;93.20;;;;;;2086420;28;748;-59
2021/06/27 00:16:15;;;;;;;;;;;20.90;93.30;;;;;;2095591;28;812;-59
2021/06/27 00:17:34;;;;;;;;;;;20.90;93.50;;;;;;2097037;28;937;-59
2021/06/27 00:18:53;;;;;;;;;;;20.90;93.60;;;;;;2094323;28;1467;-59
2021/06/27 00:20:14;;;;;;;;;;;20.90;93.60;;;;;;2103587;28;1062;-58
2021/06/27 00:21:33;;;;;;;;;;;20.90;93.30;;;;;;2094814;28;1906;-59
2021/06/27 00:22:53;;;;;;;;;;;20.90;93.30;;;;;;2098938;28;1756;-59
2021/06/27 00:24:12;;;;;;;;;;;20.90;93.30;;;;;;2097753;28;718;-58
2021/06/27 00:25:31;;;;;;;;;;;20.90;93.30;;;;;;2095398;28;735;-58
2021/06/27 00:26:50;;;;;;;;;;;20.90;93.30;;;;;;2099024;28;737;-59
2021/06/27 00:28:10;;;;;;;;;;;20.90;93.30;;;;;;2099228;28;708;-59
2021/06/27 00:29:29;;;;;;;;;;;20.90;93.30;;;;;;2099231;28;747;-59
2021/06/27 00:30:49;;;;;;;;;;;20.90;93.40;;;;;;2098738;28;1549;-58
2021/06/27 00:32:09;;;;;;;;;;;20.90;93.40;;;;;;2099046;28;1015;-59
2021/06/27 00:33:28;;;;;;;;;;;20.90;93.70;;;;;;2097905;28;740;-58
2021/06/27 00:34:47;;;;;;;;;;;20.90;93.80;;;;;;2081269;28;719;-58
2021/06/27 00:36:06;;;;;;;;;;;20.90;93.80;;;;;;2087043;28;998;-59
2021/06/27 00:37:27;;;;;;;;;;;20.90;93.50;;;;;;2089871;28;721;-59
2021/06/27 00:38:46;;;;;;;;;;;20.90;93.50;;;;;;2090616;28;695;-58
2021/06/27 00:40:06;;;;;;;;;;;20.90;93.50;;;;;;2090543;28;760;-59
2021/06/27 00:41:25;;;;;;;;;;;20.90;93.60;;;;;;2081976;28;2055;-58
2021/06/27 00:42:45;;;;;;;;;;;20.90;93.60;;;;;;2084978;28;1597;-58
2021/06/27 00:44:04;;;;;;;;;;;20.90;93.60;;;;;;2098273;28;718;-59
2021/06/27 00:45:24;;;;;;;;;;;20.90;93.70;;;;;;2098164;28;712;-59
2021/06/27 00:46:48;;;;;;;;;;;20.90;93.70;;;;;;2098607;28;713;-59
2021/06/27 00:48:08;;;;;;;;;;;20.90;94.00;;;;;;2103002;28;1004;-59
2021/06/27 00:49:27;;;;;;;;;;;20.90;93.70;;;;;;2099930;28;1555;-59
2021/06/27 00:50:48;;;;;;;;;;;20.90;93.80;;;;;;2105553;28;1496;-59
2021/06/27 00:52:07;;;;;;;;;;;20.90;93.80;;;;;;2089975;28;765;-59
2021/06/27 00:53:26;;;;;;;;;;;20.90;93.70;;;;;;2094950;28;873;-58
2021/06/27 00:54:45;;;;;;;;;;;20.90;93.70;;;;;;2098380;28;713;-59
2021/06/27 00:56:04;;;;;;;;;;;20.90;93.70;;;;;;2098175;28;740;-59
2021/06/27 00:57:24;;;;;;;;;;;20.90;93.70;;;;;;2098348;28;721;-60
2021/06/27 00:58:43;;;;;;;;;;;20.90;93.80;;;;;;2094847;28;727;-58
2021/06/27 01:00:05;;;;;;;;;;;20.90;94.10;;;;;;2081492;28;797;-59
2021/06/27 01:01:25;;;;;;;;;;;20.90;94.10;;;;;;2090762;28;1898;-59
2021/06/27 01:02:44;;;;;;;;;;;20.90;93.80;;;;;;2098762;28;1405;-59
2021/06/27 01:04:03;;;;;;;;;;;20.90;93.80;;;;;;2098115;28;706;-58
2021/06/27 01:05:24;;;;;;;;;;;20.90;93.80;;;;;;2098143;28;752;-59
2021/06/27 01:06:43;;;;;;;;;;;20.90;93.80;;;;;;2097954;28;845;-59
2021/06/27 01:08:02;;;;;;;;;;;20.90;93.90;;;;;;2094794;28;761;-59
2021/06/27 01:09:21;;;;;;;;;;;20.90;93.90;;;;;;2098454;28;700;-59
2021/06/27 01:10:41;;;;;;;;;;;20.90;93.90;;;;;;2098656;28;764;-59
2021/06/27 01:12:00;;;;;;;;;;;20.90;94.30;;;;;;2089956;28;760;-59
2021/06/27 01:13:21;;;;;;;;;;;20.90;94.00;;;;;;2086756;28;777;-59
2021/06/27 01:14:40;;;;;;;;;;;20.80;93.90;;;;;;2086583;28;2000;-58
2021/06/27 01:16:00;;;;;;;;;;;20.90;94.00;;;;;;2094743;28;795;-58
2021/06/27 01:17:19;;;;;;;;;;;20.90;94.00;;;;;;2089651;28;716;-58
2021/06/27 01:18:38;;;;;;;;;;;20.80;94.00;;;;;;2099456;28;1361;-58
2021/06/27 01:19:58;;;;;;;;;;;20.80;94.00;;;;;;2101246;28;1023;-59
2021/06/27 01:21:17;;;;;;;;;;;20.80;94.10;;;;;;2101943;28;1906;-59
2021/06/27 01:22:37;;;;;;;;;;;20.80;94.10;;;;;;2098444;28;1418;-59
2021/06/27 01:23:55;;;;;;;;;;;20.80;94.10;;;;;;2089540;28;1042;-59
2021/06/27 01:25:16;;;;;;;;;;;20.80;94.10;;;;;;2094984;28;732;-59
2021/06/27 01:26:35;;;;;;;;;;;20.80;94.10;;;;;;2098558;28;719;-59
2021/06/27 01:27:54;;;;;;;;;;;20.80;94.40;;;;;;2098383;28;704;-59
2021/06/27 01:29:15;;;;;;;;;;;20.80;94.10;;;;;;2097701;28;1734;-58
2021/06/27 01:30:34;;;;;;;;;;;20.90;94.10;;;;;;2094614;28;718;-59
2021/06/27 01:31:54;;;;;;;;;;;20.80;94.10;;;;;;2086663;28;795;-59
2021/06/27 01:33:17;;;;;;;;;;;20.80;94.10;;;;;;2086566;28;1553;-58
2021/06/27 01:34:38;;;;;;;;;;;20.80;94.10;;;;;;2093496;28;1634;-59
2021/06/27 01:35:57;;;;;;;;;;;20.80;94.10;;;;;;2094868;28;1119;-59
2021/06/27 01:37:17;;;;;;;;;;;20.80;94.40;;;;;;2098124;28;1135;-58
2021/06/27 01:38:36;;;;;;;;;;;20.80;94.10;;;;;;2097506;28;1690;-59
2021/06/27 01:39:55;;;;;;;;;;;20.80;94.20;;;;;;2098157;28;754;-58
2021/06/27 01:41:14;;;;;;;;;;;20.80;94.20;;;;;;2097421;28;1905;-58
2021/06/27 01:42:34;;;;;;;;;;;20.80;94.20;;;;;;2094707;28;1320;-59
2021/06/27 01:43:53;;;;;;;;;;;20.80;94.20;;;;;;2098079;28;740;-59
2021/06/27 01:45:13;;;;;;;;;;;20.80;94.20;;;;;;2097644;28;766;-59
2021/06/27 01:46:32;;;;;;;;;;;20.80;94.30;;;;;;2098092;28;712;-58
2021/06/27 01:47:52;;;;;;;;;;;20.80;94.30;;;;;;2097206;28;1134;-58
2021/06/27 01:49:11;;;;;;;;;;;20.80;94.30;;;;;;2101751;28;940;-59
2021/06/27 01:50:31;;;;;;;;;;;20.80;94.30;;;;;;2105756;28;1047;-59
2021/06/27 01:51:50;;;;;;;;;;;20.80;94.70;;;;;;2100114;28;1946;-58
2021/06/27 01:53:10;;;;;;;;;;;20.80;94.70;;;;;;2098026;28;1380;-58
2021/06/27 01:54:29;;;;;;;;;;;20.80;94.40;;;;;;2097031;28;725;-58
2021/06/27 01:55:48;;;;;;;;;;;20.80;94.40;;;;;;2098074;28;724;-59
2021/06/27 01:57:07;;;;;;;;;;;20.80;94.40;;;;;;2098350;28;708;-59
2021/06/27 01:58:27;;;;;;;;;;;20.80;94.40;;;;;;2098273;28;751;-58
2021/06/27 01:59:48;;;;;;;;;;;20.80;94.40;;;;;;2097894;28;753;-59
2021/06/27 02:01:12;;;;;;;;;;;20.80;94.40;;;;;;2097331;28;1969;-59
2021/06/27 02:02:31;;;;;;;;;;;20.80;94.40;;;;;;2097350;28;1475;-58
2021/06/27 02:03:50;;;;;;;;;;;20.80;94.70;;;;;;2097865;28;708;-59
2021/06/27 02:05:10;;;;;;;;;;;20.80;94.40;;;;;;2097598;28;867;-58
2021/06/27 02:06:29;;;;;;;;;;;20.80;94.40;;;;;;2093869;28;1922;-59
2021/06/27 02:07:48;;;;;;;;;;;20.80;94.50;;;;;;2098164;28;689;-59
2021/06/27 02:09:08;;;;;;;;;;;20.80;94.50;;;;;;2085738;28;2002;-58
2021/06/27 02:10:27;;;;;;;;;;;20.80;94.50;;;;;;2089664;28;1159;-59
2021/06/27 02:11:47;;;;;;;;;;;20.80;94.50;;;;;;2090055;28;713;-58
2021/06/27 02:13:06;;;;;;;;;;;20.80;94.50;;;;;;2089739;28;1381;-59
2021/06/27 02:14:26;;;;;;;;;;;20.80;94.50;;;;;;2088760;28;734;-59
2021/06/27 02:15:45;;;;;;;;;;;20.80;94.60;;;;;;2094124;28;925;-59
2021/06/27 02:17:05;;;;;;;;;;;20.80;94.60;;;;;;2092838;28;738;-58
2021/06/27 02:18:27;;;;;;;;;;;20.70;94.60;;;;;;2093848;28;992;-58
2021/06/27 02:19:52;;;;;;;;;;;20.70;94.90;;;;;;2096302;28;1847;-58
2021/06/27 02:21:12;;;;;;;;;;;20.70;94.60;;;;;;2102381;28;1970;-59
2021/06/27 02:22:31;;;;;;;;;;;20.70;94.60;;;;;;2096617;28;1507;-58
2021/06/27 02:23:51;;;;;;;;;;;20.70;94.70;;;;;;2097626;28;1046;-59
2021/06/27 02:25:10;;;;;;;;;;;20.70;94.70;;;;;;2097591;28;913;-58
2021/06/27 02:26:29;;;;;;;;;;;20.70;95.00;;;;;;2097737;28;780;-58
2021/06/27 02:27:48;;;;;;;;;;;20.70;95.00;;;;;;2097420;28;729;-59
2021/06/27 02:29:08;;;;;;;;;;;20.70;95.00;;;;;;2097947;28;708;-58
2021/06/27 02:30:27;;;;;;;;;;;20.70;94.70;;;;;;2088886;28;767;-59
2021/06/27 02:31:50;;;;;;;;;;;20.70;94.80;;;;;;2094148;28;1838;-59
2021/06/27 02:33:09;;;;;;;;;;;20.70;94.70;;;;;;2096825;28;1380;-58
2021/06/27 02:34:28;;;;;;;;;;;20.70;94.70;;;;;;2097519;28;729;-59
2021/06/27 02:35:47;;;;;;;;;;;20.70;94.70;;;;;;2097991;28;728;-58
2021/06/27 02:37:07;;;;;;;;;;;20.70;94.70;;;;;;2097295;28;972;-59
2021/06/27 02:38:26;;;;;;;;;;;20.70;94.70;;;;;;2094128;28;722;-58
2021/06/27 02:39:45;;;;;;;;;;;20.70;95.10;;;;;;2093970;28;1525;-59
2021/06/27 02:41:05;;;;;;;;;;;20.70;95.10;;;;;;2097435;28;1985;-58
2021/06/27 02:42:24;;;;;;;;;;;20.70;94.80;;;;;;2098021;28;2067;-59
2021/06/27 02:43:44;;;;;;;;;;;20.70;94.80;;;;;;2097830;28;760;-59
2021/06/27 02:45:06;;;;;;;;;;;20.70;94.80;;;;;;2097309;28;731;-59
2021/06/27 02:46:26;;;;;;;;;;;20.70;94.80;;;;;;2097618;28;1441;-59
2021/06/27 02:47:45;;;;;;;;;;;20.70;94.80;;;;;;2098962;28;1061;-59
2021/06/27 02:49:04;;;;;;;;;;;20.70;94.90;;;;;;2102685;28;1155;-58
2021/06/27 02:50:23;;;;;;;;;;;20.70;94.90;;;;;;2104344;28;1015;-58
2021/06/27 02:51:42;;;;;;;;;;;20.70;94.90;;;;;;2097950;28;1985;-59
2021/06/27 02:53:02;;;;;;;;;;;20.70;94.90;;;;;;2097267;28;1341;-59
2021/06/27 02:54:21;;;;;;;;;;;20.70;95.30;;;;;;2088265;28;712;-58
2021/06/27 02:55:41;;;;;;;;;;;20.70;95.30;;;;;;2094849;28;744;-59
2021/06/27 02:57:00;;;;;;;;;;;20.70;95.00;;;;;;2097607;28;719;-59
2021/06/27 02:58:19;;;;;;;;;;;20.70;95.00;;;;;;2097309;28;1567;-59
2021/06/27 02:59:38;;;;;;;;;;;20.70;95.10;;;;;;2097400;28;1640;-59
2021/06/27 03:00:58;;;;;;;;;;;20.70;95.00;;;;;;2096950;28;1970;-57
2021/06/27 03:02:17;;;;;;;;;;;20.70;95.10;;;;;;2094295;28;1325;-57
2021/06/27 03:03:37;;;;;;;;;;;20.70;95.10;;;;;;2094262;28;771;-58
2021/06/27 03:04:56;;;;;;;;;;;20.70;95.10;;;;;;2093714;28;1002;-57
2021/06/27 03:06:16;;;;;;;;;;;20.70;95.00;;;;;;2097784;28;820;-57
2021/06/27 03:07:35;;;;;;;;;;;20.70;95.00;;;;;;2097359;28;739;-57
2021/06/27 03:08:54;;;;;;;;;;;20.70;95.00;;;;;;2094156;28;780;-57
2021/06/27 03:10:14;;;;;;;;;;;20.70;95.00;;;;;;2097672;28;1299;-57
2021/06/27 03:11:33;;;;;;;;;;;20.70;95.10;;;;;;2097159;28;1752;-57
2021/06/27 03:12:52;;;;;;;;;;;20.60;95.40;;;;;;2098760;28;1954;-57
2021/06/27 03:14:12;;;;;;;;;;;20.70;95.20;;;;;;2098841;28;731;-57
2021/06/27 03:15:31;;;;;;;;;;;20.60;95.20;;;;;;2101913;28;1221;-57
2021/06/27 03:16:50;;;;;;;;;;;20.70;95.30;;;;;;2098970;28;751;-59
2021/06/27 03:18:10;;;;;;;;;;;20.70;95.30;;;;;;2099952;28;1079;-59
2021/06/27 03:19:29;;;;;;;;;;;20.60;95.30;;;;;;2096835;28;1178;-59
2021/06/27 03:20:48;;;;;;;;;;;20.60;95.40;;;;;;2107712;28;722;-59
2021/06/27 03:22:07;;;;;;;;;;;20.60;95.50;;;;;;2091262;28;770;-59
2021/06/27 03:23:27;;;;;;;;;;;20.70;95.60;;;;;;2090861;28;786;-59
2021/06/27 03:24:46;;;;;;;;;;;20.60;95.60;;;;;;2086844;28;774;-59
2021/06/27 03:26:05;;;;;;;;;;;20.60;95.70;;;;;;2079242;28;717;-59
2021/06/27 03:27:25;;;;;;;;;;;20.60;95.70;;;;;;2087581;28;738;-59
2021/06/27 03:28:46;;;;;;;;;;;20.60;96.00;;;;;;2091185;28;748;-59
2021/06/27 03:30:06;;;;;;;;;;;20.60;95.80;;;;;;2091341;28;698;-59
2021/06/27 03:31:25;;;;;;;;;;;20.60;95.80;;;;;;2101989;28;1425;-59
2021/06/27 03:32:45;;;;;;;;;;;20.60;95.80;;;;;;2102110;28;1373;-58
2021/06/27 03:34:04;;;;;;;;;;;20.60;95.80;;;;;;2098248;28;742;-58
2021/06/27 03:35:23;;;;;;;;;;;20.60;95.80;;;;;;2095592;28;1322;-59
2021/06/27 03:36:42;;;;;;;;;;;20.60;95.80;;;;;;2094723;28;1422;-58
2021/06/27 03:38:17;;;;;;;;;;;20.60;95.80;;;;;;2094991;28;1237;-59
2021/06/27 03:39:36;;;;;;;;;;;20.60;95.80;;;;;;2098680;28;1153;-59
2021/06/27 03:40:56;;;;;;;;;;;20.60;95.80;;;;;;2097108;28;1446;-59
2021/06/27 03:42:15;;;;;;;;;;;20.60;95.80;;;;;;2095253;28;1260;-59
2021/06/27 03:43:34;;;;;;;;;;;20.60;95.80;;;;;;2098473;28;1293;-59
2021/06/27 03:44:53;;;;;;;;;;;20.60;95.90;;;;;;2093950;28;1257;-59
2021/06/27 03:46:13;;;;;;;;;;;20.60;95.80;;;;;;2094587;28;1188;-59
2021/06/27 03:47:33;;;;;;;;;;;20.60;95.80;;;;;;2081125;28;1206;-59
2021/06/27 03:48:52;;;;;;;;;;;20.60;95.80;;;;;;2085941;28;1144;-59
2021/06/27 03:50:11;;;;;;;;;;;20.60;95.80;;;;;;2087072;28;1132;-60
2021/06/27 03:51:31;;;;;;;;;;;20.60;95.80;;;;;;2094939;28;1495;-59
2021/06/27 03:52:50;;;;;;;;;;;20.60;95.80;;;;;;2095174;28;1398;-59
2021/06/27 03:54:09;;;;;;;;;;;20.60;95.80;;;;;;2097783;28;1154;-59
2021/06/27 03:55:32;;;;;;;;;;;20.60;95.80;;;;;;2096691;28;1148;-56
2021/06/27 03:56:51;;;;;;;;;;;20.60;95.80;;;;;;2095702;28;1249;-58
2021/06/27 03:58:10;;;;;;;;;;;20.60;95.80;;;;;;2098183;28;1325;-58
2021/06/27 03:59:29;;;;;;;;;;;20.60;95.80;;;;;;2096782;28;1143;-58
2021/06/27 04:00:49;;;;;;;;;;;20.60;95.80;;;;;;2096342;28;1555;-59
2021/06/27 04:02:08;;;;;;;;;;;20.60;95.80;;;;;;2097981;28;1499;-59
2021/06/27 04:03:28;;;;;;;;;;;20.60;95.80;;;;;;2096925;28;1221;-59
2021/06/27 04:04:47;;;;;;;;;;;20.60;95.80;;;;;;2096922;28;1328;-57
2021/06/27 04:06:06;;;;;;;;;;;20.60;95.80;;;;;;2095402;28;1066;-58
2021/06/27 04:07:25;;;;;;;;;;;20.60;95.80;;;;;;2095999;28;1256;-59
2021/06/27 04:08:44;;;;;;;;;;;20.60;95.80;;;;;;2094724;28;1169;-60
2021/06/27 04:10:04;;;;;;;;;;;20.60;95.80;;;;;;2097074;28;1413;-58
2021/06/27 04:11:24;;;;;;;;;;;20.60;95.70;;;;;;2095834;28;1341;-58
2021/06/27 04:12:43;;;;;;;;;;;20.60;95.70;;;;;;2091939;28;1440;-59
2021/06/27 04:14:02;;;;;;;;;;;20.60;96.00;;;;;;2095949;28;1224;-58
2021/06/27 04:15:21;;;;;;;;;;;20.60;95.70;;;;;;2094019;28;1431;-59
2021/06/27 04:16:41;;;;;;;;;;;20.60;95.70;;;;;;2097943;28;1184;-59
2021/06/27 04:18:00;;;;;;;;;;;20.60;95.70;;;;;;2086248;28;1381;-59
2021/06/27 04:19:19;;;;;;;;;;;20.60;95.70;;;;;;2083596;28;1213;-58
2021/06/27 04:20:38;;;;;;;;;;;20.60;95.70;;;;;;2087707;28;1262;-59
2021/06/27 04:21:58;;;;;;;;;;;20.60;95.70;;;;;;2094475;28;1910;-58
2021/06/27 04:23:17;;;;;;;;;;;20.60;95.70;;;;;;2097368;28;1082;-58
2021/06/27 04:24:36;;;;;;;;;;;20.60;95.70;;;;;;2097048;28;1154;-58
2021/06/27 04:25:55;;;;;;;;;;;20.60;95.70;;;;;;2095902;28;1259;-58
2021/06/27 04:27:14;;;;;;;;;;;20.60;95.70;;;;;;2094296;28;1260;-59
2021/06/27 04:28:34;;;;;;;;;;;20.60;95.70;;;;;;2097554;28;1239;-58
2021/06/27 04:29:53;;;;;;;;;;;20.60;95.70;;;;;;2094950;28;1389;-58
2021/06/27 04:31:12;;;;;;;;;;;20.60;95.70;;;;;;2088584;28;1686;-58
2021/06/27 04:32:31;;;;;;;;;;;20.60;95.70;;;;;;2090095;28;1433;-58
2021/06/27 04:33:50;;;;;;;;;;;20.60;96.00;;;;;;2097270;28;1186;-58
2021/06/27 04:35:09;;;;;;;;;;;20.60;95.70;;;;;;2091426;28;1266;-58
2021/06/27 04:36:29;;;;;;;;;;;20.60;95.70;;;;;;2096214;28;1465;-59
2021/06/27 04:37:48;;;;;;;;;;;20.60;95.70;;;;;;2097456;28;1271;-58
2021/06/27 04:39:08;;;;;;;;;;;20.60;95.70;;;;;;2097951;28;1209;-58
2021/06/27 04:40:27;;;;;;;;;;;20.60;95.70;;;;;;2089162;28;1108;-58
2021/06/27 04:41:47;;;;;;;;;;;20.60;95.70;;;;;;2080299;28;1906;-58
2021/06/27 04:43:07;;;;;;;;;;;20.60;95.70;;;;;;2094186;28;1527;-58
2021/06/27 04:44:26;;;;;;;;;;;20.60;95.70;;;;;;2097395;28;1268;-58
2021/06/27 04:45:46;;;;;;;;;;;20.60;95.60;;;;;;2097997;28;1340;-58
2021/06/27 04:47:05;;;;;;;;;;;20.60;95.60;;;;;;2096067;28;1179;-58
2021/06/27 04:48:24;;;;;;;;;;;20.60;95.60;;;;;;2097149;28;1172;-58
2021/06/27 04:49:43;;;;;;;;;;;20.60;95.90;;;;;;2096243;28;1176;-58
2021/06/27 04:51:02;;;;;;;;;;;20.60;95.90;;;;;;2096921;28;1435;-59
2021/06/27 04:52:21;;;;;;;;;;;20.60;95.50;;;;;;2095782;28;1430;-58
2021/06/27 04:53:41;;;;;;;;;;;20.60;95.60;;;;;;2094852;28;1273;-59
2021/06/27 04:55:04;;;;;;;;;;;20.60;95.50;;;;;;2096570;28;1167;-58
2021/06/27 04:56:23;;;;;;;;;;;20.60;95.50;;;;;;2098117;28;1203;-58
2021/06/27 04:57:42;;;;;;;;;;;20.60;95.50;;;;;;2094739;28;1335;-57
2021/06/27 04:59:01;;;;;;;;;;;20.60;95.50;;;;;;2097511;28;1804;-58
2021/06/27 05:00:21;;;;;;;;;;;20.60;95.50;;;;;;2096288;28;1202;-58
2021/06/27 05:01:40;;;;;;;;;;;20.60;95.50;;;;;;2096900;28;1973;-58
2021/06/27 05:03:01;;;;;;;;;;;20.60;95.80;;;;;;2097034;28;1572;-57
2021/06/27 05:04:20;;;;;;;;;;;20.60;95.90;;;;;;2097653;28;1139;-57
2021/06/27 05:05:39;;;;;;;;;;;20.60;95.50;;;;;;2093935;28;1405;-56
2021/06/27 05:06:59;;;;;;;;;;;20.60;95.50;;;;;;2085227;28;1334;-58
2021/06/27 05:08:18;;;;;;;;;;;20.60;95.50;;;;;;2092750;28;1510;-55
2021/06/27 05:09:37;;;;;;;;;;;20.60;95.60;;;;;;2097356;28;1040;-57
2021/06/27 05:10:58;;;;;;;;;;;20.60;95.70;;;;;;2086546;28;1690;-57
2021/06/27 05:12:17;;;;;;;;;;;20.60;95.80;;;;;;2091655;28;1408;-57
2021/06/27 05:13:37;;;;;;;;;;;20.60;95.80;;;;;;2090438;28;1269;-58
2021/06/27 05:14:56;;;;;;;;;;;20.60;96.00;;;;;;2095107;28;1355;-57
2021/06/27 05:16:15;;;;;;;;;;;20.60;96.20;;;;;;2092609;28;1251;-57
2021/06/27 05:17:34;;;;;;;;;;;20.60;96.20;;;;;;2085571;28;1254;-57
2021/06/27 05:18:54;;;;;;;;;;;20.60;96.80;;;;;;2089602;28;1233;-57
2021/06/27 05:20:13;;;;;;;;;;;20.60;96.70;;;;;;2097211;28;1346;-57
2021/06/27 05:21:32;;;;;;;;;;;20.60;96.90;;;;;;2096992;28;1906;-57
2021/06/27 05:22:51;;;;;;;;;;;20.60;97.00;;;;;;2097191;28;1529;-57
2021/06/27 05:24:10;;;;;;;;;;;20.60;97.20;;;;;;2097286;28;1340;-57
2021/06/27 05:25:30;;;;;;;;;;;20.60;97.30;;;;;;2096726;28;1312;-57
2021/06/27 05:26:49;;;;;;;;;;;20.60;97.40;;;;;;2096864;28;1285;-57
2021/06/27 05:28:08;;;;;;;;;;;20.60;97.50;;;;;;2097743;28;1101;-58
2021/06/27 05:29:28;;;;;;;;;;;20.60;97.60;;;;;;2088624;28;1514;-57
2021/06/27 05:30:47;;;;;;;;;;;20.60;97.60;;;;;;2093846;28;1254;-58
2021/06/27 05:32:07;;;;;;;;;;;20.60;97.70;;;;;;2096832;28;1366;-59
2021/06/27 05:33:26;;;;;;;;;;;20.60;97.90;;;;;;2094514;28;1561;-58
2021/06/27 05:34:45;;;;;;;;;;;20.60;98.00;;;;;;2091941;28;1258;-59
2021/06/27 05:36:05;;;;;;;;;;;20.60;98.20;;;;;;2097538;28;1143;-59
2021/06/27 05:37:24;;;;;;;;;;;20.60;98.20;;;;;;2096512;28;1394;-59
2021/06/27 05:38:43;;;;;;;;;;;20.60;98.50;;;;;;2097336;28;1114;-59
2021/06/27 05:40:02;;;;;;;;;;;20.60;97.70;;;;;;2096793;28;1145;-59
2021/06/27 05:41:22;;;;;;;;;;;20.60;98.00;;;;;;2096650;28;1902;-59
2021/06/27 05:42:42;;;;;;;;;;;20.60;97.70;;;;;;2096698;28;1480;-59
2021/06/27 05:44:01;;;;;;;;;;;20.60;98.20;;;;;;2097862;28;1367;-57
2021/06/27 05:45:20;;;;;;;;;;;20.60;98.90;;;;;;2095449;28;1284;-59
2021/06/27 05:46:40;;;;;;;;;;;20.50;98.70;;;;;;2087549;28;1251;-59
2021/06/27 05:47:59;;;;;;;;;;;20.50;99.00;;;;;;2092494;28;1353;-58
2021/06/27 05:49:18;;;;;;;;;;;20.50;98.70;;;;;;2097551;28;1557;-59
2021/06/27 05:50:37;;;;;;;;;;;20.60;98.50;;;;;;2097904;28;1357;-59
2021/06/27 05:51:56;;;;;;;;;;;20.60;98.40;;;;;;2096916;28;1430;-59
2021/06/27 05:53:16;;;;;;;;;;;20.60;98.80;;;;;;2097013;28;1328;-59
2021/06/27 05:54:35;;;;;;;;;;;20.60;98.50;;;;;;2096747;28;1199;-58
2021/06/27 05:56:10;;;;;;;;;;;20.60;98.50;;;;;;2097696;28;1356;-58
2021/06/27 05:57:29;;;;;;;;;;;20.60;98.40;;;;;;2096384;28;1221;-59
2021/06/27 05:58:49;;;;;;;;;;;20.60;98.40;;;;;;2097234;28;1157;-59
2021/06/27 06:00:08;;;;;;;;;;;20.60;98.30;;;;;;2097143;28;1154;-59
2021/06/27 06:01:29;;;;;;;;;;;20.60;98.20;;;;;;2095245;28;1902;-59
2021/06/27 06:02:49;;;;;;;;;;;20.60;98.10;;;;;;2093255;28;1566;-59
2021/06/27 06:04:08;;;;;;;;;;;20.70;98.30;;;;;;2095669;28;1265;-58
2021/06/27 06:05:27;;;;;;;;;;;20.70;98.30;;;;;;2092454;28;1266;-59
2021/06/27 06:06:46;;;;;;;;;;;20.70;98.10;;;;;;2085047;28;1506;-59
2021/06/27 06:08:06;;;;;;;;;;;20.70;98.40;;;;;;2089668;28;1227;-58
2021/06/27 06:09:25;;;;;;;;;;;20.70;98.40;;;;;;2097500;28;1116;-58
2021/06/27 06:10:44;;;;;;;;;;;20.70;98.00;;;;;;2088551;28;1175;-58
2021/06/27 06:12:04;;;;;;;;;;;20.70;98.00;;;;;;2093795;28;1547;-59
2021/06/27 06:13:23;;;;;;;;;;;20.70;97.90;;;;;;2096902;28;1130;-59
2021/06/27 06:14:42;;;;;;;;;;;20.70;97.90;;;;;;2094168;28;926;-59
2021/06/27 06:16:02;;;;;;;;;;;20.70;97.80;;;;;;2096917;28;1017;-57
2021/06/27 06:17:21;;;;;;;;;;;20.70;97.80;;;;;;2096610;28;1320;-59
2021/06/27 06:18:44;;;;;;;;;;;20.70;97.80;;;;;;2097452;28;1778;-60
2021/06/27 06:20:03;;;;;;;;;;;20.70;97.70;;;;;;2096124;28;1515;-58
2021/06/27 06:21:22;;;;;;;;;;;20.70;97.90;;;;;;2095694;28;1917;-58
2021/06/27 06:22:41;;;;;;;;;;;20.70;98.00;;;;;;2097265;28;1443;-59
2021/06/27 06:24:00;;;;;;;;;;;20.70;98.00;;;;;;2096724;28;1413;-58
2021/06/27 06:25:20;;;;;;;;;;;20.70;98.70;;;;;;2096951;28;1221;-59
2021/06/27 06:26:39;;;;;;;;;;;20.70;98.90;;;;;;2096884;28;1283;-59
2021/06/27 06:27:58;;;;;;;;;;;20.70;99.00;;;;;;2095625;28;1278;-58
2021/06/27 06:29:17;;;;;;;;;;;20.80;99.30;;;;;;2093771;28;1515;-58
2021/06/27 06:30:37;;;;;;;;;;;20.80;99.30;;;;;;2097192;28;1088;-59
2021/06/27 06:31:56;;;;;;;;;;;20.80;99.50;;;;;;2096018;28;1212;-58
2021/06/27 06:33:16;;;;;;;;;;;20.80;99.20;;;;;;2094601;28;1427;-58
2021/06/27 06:34:35;;;;;;;;;;;20.80;99.10;;;;;;2094567;28;1170;-58
2021/06/27 06:35:54;;;;;;;;;;;20.80;98.90;;;;;;2094748;28;1331;-59
2021/06/27 06:37:14;;;;;;;;;;;20.80;98.90;;;;;;2083930;28;1303;-59
2021/06/27 06:38:33;;;;;;;;;;;20.80;98.80;;;;;;2093443;28;1228;-59
2021/06/27 06:39:52;;;;;;;;;;;20.80;99.00;;;;;;2091816;28;1639;-59
2021/06/27 06:41:11;;;;;;;;;;;20.80;98.40;;;;;;2096458;28;1343;-59
2021/06/27 06:42:30;;;;;;;;;;;20.80;98.40;;;;;;2096880;28;1424;-59
2021/06/27 06:43:50;;;;;;;;;;;20.80;98.40;;;;;;2088064;28;1194;-59
2021/06/27 06:45:09;;;;;;;;;;;20.80;98.30;;;;;;2089809;28;1307;-59
2021/06/27 06:46:28;;;;;;;;;;;20.80;98.30;;;;;;2095042;28;1002;-59
2021/06/27 06:47:48;;;;;;;;;;;20.80;98.20;;;;;;2093837;28;1280;-59
2021/06/27 06:49:07;;;;;;;;;;;20.80;98.10;;;;;;2088408;28;1452;-60
2021/06/27 06:50:27;;;;;;;;;;;20.90;98.10;;;;;;2092232;28;1104;-60
2021/06/27 06:51:46;;;;;;;;;;;20.90;98.00;;;;;;2096528;28;1817;-59
2021/06/27 06:53:05;;;;;;;;;;;20.90;98.00;;;;;;2093964;28;1435;-59
2021/06/27 06:54:24;;;;;;;;;;;20.90;98.00;;;;;;2096224;28;1145;-59
2021/06/27 06:55:44;;;;;;;;;;;20.90;97.90;;;;;;2097414;28;1363;-59
2021/06/27 06:57:03;;;;;;;;;;;20.90;97.90;;;;;;2096617;28;1190;-59
2021/06/27 06:58:23;;;;;;;;;;;20.90;97.80;;;;;;2097284;28;1026;-60
2021/06/27 06:59:43;;;;;;;;;;;20.90;97.80;;;;;;2093917;28;1228;-59
2021/06/27 07:01:02;;;;;;;;;;;20.90;97.70;;;;;;2092329;28;1338;-58
2021/06/27 07:02:21;;;;;;;;;;;20.90;97.60;;;;;;2096834;28;1412;-58
2021/06/27 07:03:40;;;;;;;;;;;20.90;97.60;;;;;;2097328;28;1111;-58
2021/06/27 07:05:00;;;;;;;;;;;20.90;97.70;;;;;;2095434;28;1384;-58
2021/06/27 07:06:22;;;;;;;;;;;20.90;97.70;;;;;;2095316;28;1402;-58
2021/06/27 07:07:41;;;;;;;;;;;20.90;97.80;;;;;;2093928;28;1313;-58
2021/06/27 07:09:00;;;;;;;;;;;20.90;98.00;;;;;;2091848;28;1237;-58
2021/06/27 07:10:20;;;;;;;;;;;20.90;98.40;;;;;;2094905;28;1216;-58
2021/06/27 07:11:39;;;;;;;;;;;20.90;98.20;;;;;;2097358;28;1627;-58
2021/06/27 07:12:58;;;;;;;;;;;20.90;98.60;;;;;;2095484;28;1357;-58
2021/06/27 07:14:18;;;;;;;;;;;20.90;98.70;;;;;;2097006;28;1427;-58
2021/06/27 07:15:37;;;;;;;;;;;20.90;98.80;;;;;;2087671;28;1140;-59
2021/06/27 07:16:56;;;;;;;;;;;20.90;99.00;;;;;;2085935;28;1138;-60
2021/06/27 07:18:16;;;;;;;;;;;20.90;99.00;;;;;;2094104;28;1192;-60
2021/06/27 07:19:35;;;;;;;;;;;20.90;99.00;;;;;;2097687;28;1228;-60
2021/06/27 07:20:54;;;;;;;;;;;20.90;99.20;;;;;;2096120;28;1182;-60
2021/06/27 07:22:14;;;;;;;;;;;20.90;99.20;;;;;;2096942;28;1967;-60
2021/06/27 07:23:33;;;;;;;;;;;20.90;99.20;;;;;;2097487;28;1181;-60
2021/06/27 07:24:52;;;;;;;;;;;20.90;99.10;;;;;;2095834;28;1717;-60
2021/06/27 07:26:11;;;;;;;;;;;20.90;99.10;;;;;;2097616;28;1549;-60
2021/06/27 07:27:30;;;;;;;;;;;20.90;99.00;;;;;;2095665;28;1157;-59
2021/06/27 07:28:49;;;;;;;;;;;20.90;99.40;;;;;;2097811;28;1287;-60
2021/06/27 07:30:09;;;;;;;;;;;21.00;99.10;;;;;;2095736;28;1391;-60
2021/06/27 07:31:28;;;;;;;;;;;20.90;99.10;;;;;;2096496;28;1658;-59
2021/06/27 07:32:47;;;;;;;;;;;20.90;99.10;;;;;;2104603;28;1373;-59
2021/06/27 07:34:06;;;;;;;;;;;20.90;99.10;;;;;;2092273;28;1151;-60
2021/06/27 07:35:25;;;;;;;;;;;20.90;99.10;;;;;;2102629;28;745;-61
2021/06/27 07:36:45;;;;;;;;;;;20.90;98.70;;;;;;2105850;28;756;-61
2021/06/27 07:38:04;;;;;;;;;;;21.00;99.00;;;;;;2105950;28;742;-60
2021/06/27 07:39:23;;;;;;;;;;;21.00;99.20;;;;;;2105524;28;721;-60
2021/06/27 07:40:42;;;;;;;;;;;21.10;98.70;;;;;;2085609;28;808;-60
2021/06/27 07:42:02;;;;;;;;;;;21.10;99.90;;;;;;2085310;28;1964;-59
2021/06/27 07:43:21;;;;;;;;;;;21.20;99.50;;;;;;2084719;28;771;-60
2021/06/27 07:44:40;;;;;;;;;;;21.20;99.90;;;;;;2076817;28;802;-60
2021/06/27 07:45:59;;;;;;;;;;;21.20;99.60;;;;;;2086037;28;737;-60
2021/06/27 07:47:18;;;;;;;;;;;21.20;99.00;;;;;;2089331;28;690;-60
2021/06/27 07:48:38;;;;;;;;;;;21.20;99.70;;;;;;2105270;28;1005;-60
2021/06/27 07:49:57;;;;;;;;;;;21.30;99.60;;;;;;2099070;28;1694;-60
2021/06/27 07:51:16;;;;;;;;;;;21.30;99.80;;;;;;2096950;28;2087;-59